sensor_id;sensor_type;location;lat;lon;timestamp;P1;durP1;ratioP1;P2;durP2;ratioP2
20894;SDS011;10607;42.066;24.742;2023-06-26T00:00:10;11.80;;;7.38;;
20894;SDS011;10607;42.066;24.742;2023-06-26T00:02:36;15.80;;;7.95;;
20894;SDS011;10607;42.066;24.742;2023-06-26T00:05:01;24.65;;;8.43;;
20894;SDS011;10607;42.066;24.742;2023-06-26T00:07:30;12.55;;;7.18;;
20894;SDS011;10607;42.066;24.742;2023-06-26T00:09:56;14.48;;;8.48;;
20894;SDS011;10607;42.066;24.742;2023-06-26T00:12:21;12.88;;;8.02;;
20894;SDS011;10607;42.066;24.742;2023-06-26T00:14:47;12.63;;;7.85;;
20894;SDS011;10607;42.066;24.742;2023-06-26T00:17:12;11.13;;;8.20;;
20894;SDS011;10607;42.066;24.742;2023-06-26T00:19:37;13.50;;;8.07;;
20894;SDS011;10607;42.066;24.742;2023-06-26T00:22:03;15.80;;;9.55;;
20894;SDS011;10607;42.066;24.742;2023-06-26T00:24:28;11.75;;;8.27;;
20894;SDS011;10607;42.066;24.742;2023-06-26T00:26:53;14.82;;;7.55;;
20894;SDS011;10607;42.066;24.742;2023-06-26T00:29:18;13.73;;;7.95;;
20894;SDS011;10607;42.066;24.742;2023-06-26T00:31:44;11.57;;;8.07;;
20894;SDS011;10607;42.066;24.742;2023-06-26T00:34:09;16.67;;;8.60;;
20894;SDS011;10607;42.066;24.742;2023-06-26T00:36:34;12.95;;;7.95;;
20894;SDS011;10607;42.066;24.742;2023-06-26T00:39:00;17.58;;;7.53;;
20894;SDS011;10607;42.066;24.742;2023-06-26T00:41:25;14.38;;;7.85;;
20894;SDS011;10607;42.066;24.742;2023-06-26T00:43:50;15.65;;;8.50;;
20894;SDS011;10607;42.066;24.742;2023-06-26T00:46:16;12.15;;;7.68;;
20894;SDS011;10607;42.066;24.742;2023-06-26T00:48:43;13.32;;;8.75;;
20894;SDS011;10607;42.066;24.742;2023-06-26T00:51:08;17.58;;;8.45;;
20894;SDS011;10607;42.066;24.742;2023-06-26T00:53:34;14.75;;;8.68;;
20894;SDS011;10607;42.066;24.742;2023-06-26T00:55:59;16.33;;;8.85;;
20894;SDS011;10607;42.066;24.742;2023-06-26T00:58:25;16.88;;;8.80;;
20894;SDS011;10607;42.066;24.742;2023-06-26T01:00:51;15.43;;;8.93;;
20894;SDS011;10607;42.066;24.742;2023-06-26T01:03:17;11.65;;;8.05;;
20894;SDS011;10607;42.066;24.742;2023-06-26T01:05:42;14.18;;;8.60;;
20894;SDS011;10607;42.066;24.742;2023-06-26T01:08:11;17.73;;;9.70;;
20894;SDS011;10607;42.066;24.742;2023-06-26T01:10:36;13.95;;;9.13;;
20894;SDS011;10607;42.066;24.742;2023-06-26T01:13:01;16.00;;;9.50;;
20894;SDS011;10607;42.066;24.742;2023-06-26T01:15:27;15.48;;;9.55;;
20894;SDS011;10607;42.066;24.742;2023-06-26T01:17:52;13.63;;;8.82;;
20894;SDS011;10607;42.066;24.742;2023-06-26T01:20:18;19.13;;;9.57;;
20894;SDS011;10607;42.066;24.742;2023-06-26T01:23:29;15.50;;;9.20;;
20894;SDS011;10607;42.066;24.742;2023-06-26T01:28:03;16.45;;;9.27;;
20894;SDS011;10607;42.066;24.742;2023-06-26T01:30:30;13.30;;;9.23;;
20894;SDS011;10607;42.066;24.742;2023-06-26T01:32:56;16.20;;;9.82;;
20894;SDS011;10607;42.066;24.742;2023-06-26T01:35:21;15.38;;;9.00;;
20894;SDS011;10607;42.066;24.742;2023-06-26T01:37:46;14.82;;;9.13;;
20894;SDS011;10607;42.066;24.742;2023-06-26T01:40:12;19.27;;;9.65;;
20894;SDS011;10607;42.066;24.742;2023-06-26T01:42:37;19.80;;;9.35;;
20894;SDS011;10607;42.066;24.742;2023-06-26T01:45:13;15.63;;;10.02;;
20894;SDS011;10607;42.066;24.742;2023-06-26T01:47:40;14.50;;;9.55;;
20894;SDS011;10607;42.066;24.742;2023-06-26T01:50:09;14.13;;;9.48;;
20894;SDS011;10607;42.066;24.742;2023-06-26T01:57:45;16.20;;;9.30;;
20894;SDS011;10607;42.066;24.742;2023-06-26T02:00:13;14.20;;;9.05;;
20894;SDS011;10607;42.066;24.742;2023-06-26T02:02:40;17.27;;;9.23;;
20894;SDS011;10607;42.066;24.742;2023-06-26T02:05:05;16.17;;;9.48;;
20894;SDS011;10607;42.066;24.742;2023-06-26T02:07:31;15.70;;;9.40;;
20894;SDS011;10607;42.066;24.742;2023-06-26T02:09:56;15.20;;;9.43;;
20894;SDS011;10607;42.066;24.742;2023-06-26T02:12:21;16.83;;;9.40;;
20894;SDS011;10607;42.066;24.742;2023-06-26T02:14:47;17.85;;;9.48;;
20894;SDS011;10607;42.066;24.742;2023-06-26T02:17:12;17.13;;;9.88;;
20894;SDS011;10607;42.066;24.742;2023-06-26T02:19:37;17.55;;;9.88;;
20894;SDS011;10607;42.066;24.742;2023-06-26T02:22:10;14.70;;;9.52;;
20894;SDS011;10607;42.066;24.742;2023-06-26T02:24:35;14.05;;;9.52;;
20894;SDS011;10607;42.066;24.742;2023-06-26T02:27:01;17.63;;;9.07;;
20894;SDS011;10607;42.066;24.742;2023-06-26T02:29:26;15.52;;;9.73;;
20894;SDS011;10607;42.066;24.742;2023-06-26T02:31:51;16.92;;;9.77;;
20894;SDS011;10607;42.066;24.742;2023-06-26T02:34:16;13.75;;;9.10;;
20894;SDS011;10607;42.066;24.742;2023-06-26T02:36:42;13.18;;;9.30;;
20894;SDS011;10607;42.066;24.742;2023-06-26T02:39:07;14.90;;;10.15;;
20894;SDS011;10607;42.066;24.742;2023-06-26T02:41:32;16.10;;;9.52;;
20894;SDS011;10607;42.066;24.742;2023-06-26T02:43:58;16.10;;;10.00;;
20894;SDS011;10607;42.066;24.742;2023-06-26T02:46:23;17.90;;;10.25;;
20894;SDS011;10607;42.066;24.742;2023-06-26T02:48:48;14.80;;;8.75;;
20894;SDS011;10607;42.066;24.742;2023-06-26T02:51:13;16.20;;;9.63;;
20894;SDS011;10607;42.066;24.742;2023-06-26T02:53:39;14.88;;;9.65;;
20894;SDS011;10607;42.066;24.742;2023-06-26T02:56:04;18.98;;;9.15;;
20894;SDS011;10607;42.066;24.742;2023-06-26T02:58:29;17.13;;;9.45;;
20894;SDS011;10607;42.066;24.742;2023-06-26T03:00:55;19.73;;;9.40;;
20894;SDS011;10607;42.066;24.742;2023-06-26T03:03:21;15.20;;;9.50;;
20894;SDS011;10607;42.066;24.742;2023-06-26T03:05:46;15.95;;;9.48;;
20894;SDS011;10607;42.066;24.742;2023-06-26T03:08:11;14.75;;;9.70;;
20894;SDS011;10607;42.066;24.742;2023-06-26T03:10:37;16.45;;;9.70;;
20894;SDS011;10607;42.066;24.742;2023-06-26T03:13:02;13.00;;;8.98;;
20894;SDS011;10607;42.066;24.742;2023-06-26T03:15:27;13.07;;;8.93;;
20894;SDS011;10607;42.066;24.742;2023-06-26T03:17:52;19.40;;;10.13;;
20894;SDS011;10607;42.066;24.742;2023-06-26T03:20:18;15.95;;;9.63;;
20894;SDS011;10607;42.066;24.742;2023-06-26T03:22:43;14.95;;;8.98;;
20894;SDS011;10607;42.066;24.742;2023-06-26T03:25:08;15.35;;;9.25;;
20894;SDS011;10607;42.066;24.742;2023-06-26T03:27:34;18.35;;;10.07;;
20894;SDS011;10607;42.066;24.742;2023-06-26T03:29:59;20.38;;;9.80;;
20894;SDS011;10607;42.066;24.742;2023-06-26T03:32:25;16.05;;;9.18;;
20894;SDS011;10607;42.066;24.742;2023-06-26T03:34:50;15.35;;;9.43;;
20894;SDS011;10607;42.066;24.742;2023-06-26T03:37:15;22.92;;;9.40;;
20894;SDS011;10607;42.066;24.742;2023-06-26T03:39:40;16.45;;;10.48;;
20894;SDS011;10607;42.066;24.742;2023-06-26T03:42:06;14.32;;;9.43;;
20894;SDS011;10607;42.066;24.742;2023-06-26T03:44:32;14.38;;;9.07;;
20894;SDS011;10607;42.066;24.742;2023-06-26T03:46:57;16.08;;;10.13;;
20894;SDS011;10607;42.066;24.742;2023-06-26T03:49:22;16.00;;;9.55;;
20894;SDS011;10607;42.066;24.742;2023-06-26T03:51:48;18.95;;;9.77;;
20894;SDS011;10607;42.066;24.742;2023-06-26T03:54:13;16.33;;;9.75;;
20894;SDS011;10607;42.066;24.742;2023-06-26T03:56:38;19.25;;;10.80;;
20894;SDS011;10607;42.066;24.742;2023-06-26T03:59:03;20.95;;;10.05;;
20894;SDS011;10607;42.066;24.742;2023-06-26T04:01:29;18.95;;;10.13;;
20894;SDS011;10607;42.066;24.742;2023-06-26T04:03:54;23.17;;;10.73;;
20894;SDS011;10607;42.066;24.742;2023-06-26T04:06:19;19.75;;;11.30;;
20894;SDS011;10607;42.066;24.742;2023-06-26T04:08:45;17.52;;;10.90;;
20894;SDS011;10607;42.066;24.742;2023-06-26T04:11:10;17.25;;;10.82;;
20894;SDS011;10607;42.066;24.742;2023-06-26T04:13:35;16.30;;;10.35;;
20894;SDS011;10607;42.066;24.742;2023-06-26T04:16:01;13.50;;;10.52;;
20894;SDS011;10607;42.066;24.742;2023-06-26T04:18:26;16.75;;;10.85;;
20894;SDS011;10607;42.066;24.742;2023-06-26T04:21:08;16.77;;;10.18;;
20894;SDS011;10607;42.066;24.742;2023-06-26T04:23:33;21.67;;;11.25;;
20894;SDS011;10607;42.066;24.742;2023-06-26T04:25:59;20.98;;;11.13;;
20894;SDS011;10607;42.066;24.742;2023-06-26T04:28:24;20.67;;;11.20;;
20894;SDS011;10607;42.066;24.742;2023-06-26T04:30:50;14.75;;;10.55;;
20894;SDS011;10607;42.066;24.742;2023-06-26T04:33:15;22.25;;;10.73;;
20894;SDS011;10607;42.066;24.742;2023-06-26T04:35:40;17.95;;;10.95;;
20894;SDS011;10607;42.066;24.742;2023-06-26T04:38:06;18.15;;;11.20;;
20894;SDS011;10607;42.066;24.742;2023-06-26T04:40:31;16.98;;;10.20;;
20894;SDS011;10607;42.066;24.742;2023-06-26T04:42:56;20.40;;;10.45;;
20894;SDS011;10607;42.066;24.742;2023-06-26T04:45:22;16.48;;;10.20;;
20894;SDS011;10607;42.066;24.742;2023-06-26T04:47:47;18.90;;;10.90;;
20894;SDS011;10607;42.066;24.742;2023-06-26T04:50:12;14.23;;;10.25;;
20894;SDS011;10607;42.066;24.742;2023-06-26T04:52:38;20.40;;;10.70;;
20894;SDS011;10607;42.066;24.742;2023-06-26T04:55:03;17.38;;;10.70;;
20894;SDS011;10607;42.066;24.742;2023-06-26T04:57:28;17.30;;;9.77;;
20894;SDS011;10607;42.066;24.742;2023-06-26T04:59:53;17.52;;;10.30;;
20894;SDS011;10607;42.066;24.742;2023-06-26T05:02:19;15.63;;;10.48;;
20894;SDS011;10607;42.066;24.742;2023-06-26T05:04:44;15.65;;;10.30;;
20894;SDS011;10607;42.066;24.742;2023-06-26T05:07:11;14.65;;;10.20;;
20894;SDS011;10607;42.066;24.742;2023-06-26T05:09:36;17.13;;;9.63;;
20894;SDS011;10607;42.066;24.742;2023-06-26T05:12:02;12.63;;;8.90;;
20894;SDS011;10607;42.066;24.742;2023-06-26T05:14:27;14.68;;;10.38;;
20894;SDS011;10607;42.066;24.742;2023-06-26T05:16:52;14.23;;;9.70;;
20894;SDS011;10607;42.066;24.742;2023-06-26T05:19:18;20.75;;;9.88;;
20894;SDS011;10607;42.066;24.742;2023-06-26T05:21:43;11.82;;;9.30;;
20894;SDS011;10607;42.066;24.742;2023-06-26T05:24:09;12.88;;;9.52;;
20894;SDS011;10607;42.066;24.742;2023-06-26T05:26:36;14.38;;;9.18;;
20894;SDS011;10607;42.066;24.742;2023-06-26T05:29:01;14.43;;;9.38;;
20894;SDS011;10607;42.066;24.742;2023-06-26T05:31:26;15.52;;;8.88;;
20894;SDS011;10607;42.066;24.742;2023-06-26T05:33:52;12.15;;;9.35;;
20894;SDS011;10607;42.066;24.742;2023-06-26T05:36:19;21.27;;;9.52;;
20894;SDS011;10607;42.066;24.742;2023-06-26T05:38:45;14.55;;;8.57;;
20894;SDS011;10607;42.066;24.742;2023-06-26T05:41:10;12.02;;;7.97;;
20894;SDS011;10607;42.066;24.742;2023-06-26T05:43:36;19.90;;;8.57;;
20894;SDS011;10607;42.066;24.742;2023-06-26T05:46:01;17.63;;;8.85;;
20894;SDS011;10607;42.066;24.742;2023-06-26T05:48:26;14.02;;;9.35;;
20894;SDS011;10607;42.066;24.742;2023-06-26T05:50:52;13.48;;;9.18;;
20894;SDS011;10607;42.066;24.742;2023-06-26T05:53:17;13.13;;;9.07;;
20894;SDS011;10607;42.066;24.742;2023-06-26T05:55:43;14.45;;;8.75;;
20894;SDS011;10607;42.066;24.742;2023-06-26T05:58:09;12.65;;;8.68;;
20894;SDS011;10607;42.066;24.742;2023-06-26T06:00:35;15.82;;;9.00;;
20894;SDS011;10607;42.066;24.742;2023-06-26T06:03:00;16.02;;;8.63;;
20894;SDS011;10607;42.066;24.742;2023-06-26T06:05:25;15.50;;;8.25;;
20894;SDS011;10607;42.066;24.742;2023-06-26T06:07:51;15.60;;;8.18;;
20894;SDS011;10607;42.066;24.742;2023-06-26T06:10:16;14.70;;;7.90;;
20894;SDS011;10607;42.066;24.742;2023-06-26T06:12:41;14.52;;;7.70;;
20894;SDS011;10607;42.066;24.742;2023-06-26T06:15:07;17.67;;;7.88;;
20894;SDS011;10607;42.066;24.742;2023-06-26T06:17:32;11.07;;;7.72;;
20894;SDS011;10607;42.066;24.742;2023-06-26T06:19:57;15.55;;;7.53;;
20894;SDS011;10607;42.066;24.742;2023-06-26T06:22:23;15.65;;;7.72;;
20894;SDS011;10607;42.066;24.742;2023-06-26T06:24:48;23.88;;;9.15;;
20894;SDS011;10607;42.066;24.742;2023-06-26T06:27:14;15.65;;;9.30;;
20894;SDS011;10607;42.066;24.742;2023-06-26T06:29:39;11.68;;;8.15;;
20894;SDS011;10607;42.066;24.742;2023-06-26T06:32:05;17.52;;;8.82;;
20894;SDS011;10607;42.066;24.742;2023-06-26T06:34:30;12.23;;;7.75;;
20894;SDS011;10607;42.066;24.742;2023-06-26T06:36:56;12.75;;;7.80;;
20894;SDS011;10607;42.066;24.742;2023-06-26T06:39:21;14.77;;;8.38;;
20894;SDS011;10607;42.066;24.742;2023-06-26T06:41:46;23.63;;;8.23;;
20894;SDS011;10607;42.066;24.742;2023-06-26T06:44:11;15.02;;;7.65;;
20894;SDS011;10607;42.066;24.742;2023-06-26T06:46:37;19.73;;;8.15;;
20894;SDS011;10607;42.066;24.742;2023-06-26T06:49:02;15.98;;;7.97;;
20894;SDS011;10607;42.066;24.742;2023-06-26T06:51:29;20.98;;;8.60;;
20894;SDS011;10607;42.066;24.742;2023-06-26T06:53:54;18.88;;;7.68;;
20894;SDS011;10607;42.066;24.742;2023-06-26T06:56:19;14.35;;;6.93;;
20894;SDS011;10607;42.066;24.742;2023-06-26T06:58:45;13.18;;;7.82;;
20894;SDS011;10607;42.066;24.742;2023-06-26T07:01:11;13.40;;;7.93;;
20894;SDS011;10607;42.066;24.742;2023-06-26T07:03:36;20.13;;;7.57;;
20894;SDS011;10607;42.066;24.742;2023-06-26T07:06:02;16.10;;;8.30;;
20894;SDS011;10607;42.066;24.742;2023-06-26T07:08:28;11.77;;;7.60;;
20894;SDS011;10607;42.066;24.742;2023-06-26T07:10:53;12.90;;;7.32;;
20894;SDS011;10607;42.066;24.742;2023-06-26T07:13:18;13.93;;;8.45;;
20894;SDS011;10607;42.066;24.742;2023-06-26T07:15:44;17.58;;;7.53;;
20894;SDS011;10607;42.066;24.742;2023-06-26T07:18:10;14.00;;;6.82;;
20894;SDS011;10607;42.066;24.742;2023-06-26T07:20:35;9.95;;;7.07;;
20894;SDS011;10607;42.066;24.742;2023-06-26T07:23:00;15.45;;;7.10;;
20894;SDS011;10607;42.066;24.742;2023-06-26T07:25:26;15.38;;;6.82;;
20894;SDS011;10607;42.066;24.742;2023-06-26T07:27:51;16.73;;;7.10;;
20894;SDS011;10607;42.066;24.742;2023-06-26T07:30:16;10.32;;;7.25;;
20894;SDS011;10607;42.066;24.742;2023-06-26T07:32:44;13.10;;;7.05;;
20894;SDS011;10607;42.066;24.742;2023-06-26T07:35:09;12.02;;;6.75;;
20894;SDS011;10607;42.066;24.742;2023-06-26T07:37:35;8.63;;;6.28;;
20894;SDS011;10607;42.066;24.742;2023-06-26T07:40:00;12.02;;;6.43;;
20894;SDS011;10607;42.066;24.742;2023-06-26T07:42:26;13.10;;;6.72;;
20894;SDS011;10607;42.066;24.742;2023-06-26T07:44:51;15.02;;;7.93;;
20894;SDS011;10607;42.066;24.742;2023-06-26T07:47:16;12.60;;;5.57;;
20894;SDS011;10607;42.066;24.742;2023-06-26T07:49:41;6.93;;;5.43;;
20894;SDS011;10607;42.066;24.742;2023-06-26T07:52:07;11.38;;;5.70;;
20894;SDS011;10607;42.066;24.742;2023-06-26T07:54:35;13.50;;;6.18;;
20894;SDS011;10607;42.066;24.742;2023-06-26T07:57:01;11.77;;;6.30;;
20894;SDS011;10607;42.066;24.742;2023-06-26T07:59:27;13.82;;;6.70;;
20894;SDS011;10607;42.066;24.742;2023-06-26T08:01:53;9.77;;;6.32;;
20894;SDS011;10607;42.066;24.742;2023-06-26T08:04:19;12.00;;;5.70;;
20894;SDS011;10607;42.066;24.742;2023-06-26T08:06:45;11.88;;;5.60;;
20894;SDS011;10607;42.066;24.742;2023-06-26T08:09:11;16.35;;;5.57;;
20894;SDS011;10607;42.066;24.742;2023-06-26T08:11:37;10.32;;;5.60;;
20894;SDS011;10607;42.066;24.742;2023-06-26T08:14:03;11.90;;;6.45;;
20894;SDS011;10607;42.066;24.742;2023-06-26T08:16:28;13.35;;;5.80;;
20894;SDS011;10607;42.066;24.742;2023-06-26T08:18:53;12.05;;;5.72;;
20894;SDS011;10607;42.066;24.742;2023-06-26T08:21:18;17.48;;;5.90;;
20894;SDS011;10607;42.066;24.742;2023-06-26T08:23:44;19.13;;;5.97;;
20894;SDS011;10607;42.066;24.742;2023-06-26T08:26:09;10.25;;;5.95;;
20894;SDS011;10607;42.066;24.742;2023-06-26T08:28:34;18.50;;;6.35;;
20894;SDS011;10607;42.066;24.742;2023-06-26T08:31:00;9.75;;;5.25;;
20894;SDS011;10607;42.066;24.742;2023-06-26T08:33:25;13.05;;;5.32;;
20894;SDS011;10607;42.066;24.742;2023-06-26T08:35:51;20.92;;;7.35;;
20894;SDS011;10607;42.066;24.742;2023-06-26T08:38:16;10.05;;;5.47;;
20894;SDS011;10607;42.066;24.742;2023-06-26T08:40:41;6.68;;;4.75;;
20894;SDS011;10607;42.066;24.742;2023-06-26T08:43:07;13.18;;;5.13;;
20894;SDS011;10607;42.066;24.742;2023-06-26T08:45:32;6.22;;;5.20;;
20894;SDS011;10607;42.066;24.742;2023-06-26T08:47:58;11.10;;;6.32;;
20894;SDS011;10607;42.066;24.742;2023-06-26T08:50:24;17.65;;;8.35;;
20894;SDS011;10607;42.066;24.742;2023-06-26T08:55:38;11.13;;;5.43;;
20894;SDS011;10607;42.066;24.742;2023-06-26T08:58:04;7.25;;;5.15;;
20894;SDS011;10607;42.066;24.742;2023-06-26T09:00:30;9.13;;;5.90;;
20894;SDS011;10607;42.066;24.742;2023-06-26T09:02:56;18.50;;;6.63;;
20894;SDS011;10607;42.066;24.742;2023-06-26T09:05:21;15.02;;;6.40;;
20894;SDS011;10607;42.066;24.742;2023-06-26T09:07:47;14.65;;;5.70;;
20894;SDS011;10607;42.066;24.742;2023-06-26T09:10:12;14.25;;;6.00;;
20894;SDS011;10607;42.066;24.742;2023-06-26T09:12:37;13.60;;;6.00;;
20894;SDS011;10607;42.066;24.742;2023-06-26T09:15:03;11.32;;;6.72;;
20894;SDS011;10607;42.066;24.742;2023-06-26T09:17:30;15.50;;;6.47;;
20894;SDS011;10607;42.066;24.742;2023-06-26T09:19:55;12.93;;;6.15;;
20894;SDS011;10607;42.066;24.742;2023-06-26T09:22:20;15.07;;;6.22;;
20894;SDS011;10607;42.066;24.742;2023-06-26T09:24:46;7.57;;;5.97;;
20894;SDS011;10607;42.066;24.742;2023-06-26T09:27:12;8.38;;;6.10;;
20894;SDS011;10607;42.066;24.742;2023-06-26T09:29:37;9.13;;;6.10;;
20894;SDS011;10607;42.066;24.742;2023-06-26T09:32:03;9.93;;;5.57;;
20894;SDS011;10607;42.066;24.742;2023-06-26T09:34:31;8.82;;;6.30;;
20894;SDS011;10607;42.066;24.742;2023-06-26T09:36:57;8.82;;;6.40;;
20894;SDS011;10607;42.066;24.742;2023-06-26T09:39:22;10.60;;;5.68;;
20894;SDS011;10607;42.066;24.742;2023-06-26T09:41:48;11.10;;;5.90;;
20894;SDS011;10607;42.066;24.742;2023-06-26T09:44:13;21.73;;;5.95;;
20894;SDS011;10607;42.066;24.742;2023-06-26T09:46:39;10.38;;;5.30;;
20894;SDS011;10607;42.066;24.742;2023-06-26T09:49:05;17.00;;;6.45;;
20894;SDS011;10607;42.066;24.742;2023-06-26T09:51:31;14.18;;;5.20;;
20894;SDS011;10607;42.066;24.742;2023-06-26T09:53:57;7.25;;;5.47;;
20894;SDS011;10607;42.066;24.742;2023-06-26T09:56:23;15.63;;;6.22;;
20894;SDS011;10607;42.066;24.742;2023-06-26T09:58:49;17.30;;;6.78;;
20894;SDS011;10607;42.066;24.742;2023-06-26T10:01:14;15.93;;;7.22;;
20894;SDS011;10607;42.066;24.742;2023-06-26T10:03:39;15.35;;;7.90;;
20894;SDS011;10607;42.066;24.742;2023-06-26T10:06:05;13.48;;;6.47;;
20894;SDS011;10607;42.066;24.742;2023-06-26T10:08:31;14.20;;;7.78;;
20894;SDS011;10607;42.066;24.742;2023-06-26T10:10:58;14.23;;;6.95;;
20894;SDS011;10607;42.066;24.742;2023-06-26T10:13:42;11.30;;;7.28;;
20894;SDS011;10607;42.066;24.742;2023-06-26T10:16:11;10.30;;;7.60;;
20894;SDS011;10607;42.066;24.742;2023-06-26T10:18:37;12.27;;;7.63;;
20894;SDS011;10607;42.066;24.742;2023-06-26T10:21:03;9.82;;;7.55;;
20894;SDS011;10607;42.066;24.742;2023-06-26T10:23:30;14.10;;;7.90;;
20894;SDS011;10607;42.066;24.742;2023-06-26T10:25:55;12.82;;;7.95;;
20894;SDS011;10607;42.066;24.742;2023-06-26T10:28:23;15.30;;;8.10;;
20894;SDS011;10607;42.066;24.742;2023-06-26T10:30:50;12.48;;;7.95;;
20894;SDS011;10607;42.066;24.742;2023-06-26T10:33:16;10.15;;;8.27;;
20894;SDS011;10607;42.066;24.742;2023-06-26T10:35:44;11.43;;;7.78;;
20894;SDS011;10607;42.066;24.742;2023-06-26T10:38:10;9.85;;;6.72;;
20894;SDS011;10607;42.066;24.742;2023-06-26T10:40:46;16.33;;;7.70;;
20894;SDS011;10607;42.066;24.742;2023-06-26T10:43:13;14.05;;;7.20;;
20894;SDS011;10607;42.066;24.742;2023-06-26T10:45:48;13.20;;;6.70;;
20894;SDS011;10607;42.066;24.742;2023-06-26T10:48:19;10.30;;;7.05;;
20894;SDS011;10607;42.066;24.742;2023-06-26T10:50:48;9.05;;;6.00;;
20894;SDS011;10607;42.066;24.742;2023-06-26T10:55:49;10.18;;;5.95;;
20894;SDS011;10607;42.066;24.742;2023-06-26T10:58:34;12.70;;;5.80;;
20894;SDS011;10607;42.066;24.742;2023-06-26T11:03:40;9.20;;;6.25;;
20894;SDS011;10607;42.066;24.742;2023-06-26T11:06:13;11.10;;;4.80;;
20894;SDS011;10607;42.066;24.742;2023-06-26T11:08:51;9.27;;;6.03;;
20894;SDS011;10607;42.066;24.742;2023-06-26T11:11:22;12.60;;;6.40;;
20894;SDS011;10607;42.066;24.742;2023-06-26T11:14:05;11.05;;;5.25;;
20894;SDS011;10607;42.066;24.742;2023-06-26T11:16:31;12.27;;;5.68;;
20894;SDS011;10607;42.066;24.742;2023-06-26T11:18:58;12.40;;;4.82;;
20894;SDS011;10607;42.066;24.742;2023-06-26T11:21:23;11.98;;;5.30;;
20894;SDS011;10607;42.066;24.742;2023-06-26T11:23:48;8.73;;;4.70;;
20894;SDS011;10607;42.066;24.742;2023-06-26T11:26:14;11.88;;;5.40;;
20894;SDS011;10607;42.066;24.742;2023-06-26T11:28:45;7.03;;;4.65;;
20894;SDS011;10607;42.066;24.742;2023-06-26T11:31:23;21.73;;;5.50;;
20894;SDS011;10607;42.066;24.742;2023-06-26T11:33:48;20.48;;;6.28;;
20894;SDS011;10607;42.066;24.742;2023-06-26T11:36:13;9.93;;;4.93;;
20894;SDS011;10607;42.066;24.742;2023-06-26T11:38:39;21.48;;;4.55;;
20894;SDS011;10607;42.066;24.742;2023-06-26T11:41:04;13.90;;;5.20;;
20894;SDS011;10607;42.066;24.742;2023-06-26T11:43:33;14.90;;;5.28;;
20894;SDS011;10607;42.066;24.742;2023-06-26T11:45:58;12.63;;;5.95;;
20894;SDS011;10607;42.066;24.742;2023-06-26T11:48:24;12.63;;;5.70;;
20894;SDS011;10607;42.066;24.742;2023-06-26T11:50:50;7.85;;;5.38;;
20894;SDS011;10607;42.066;24.742;2023-06-26T11:53:16;13.40;;;4.90;;
20894;SDS011;10607;42.066;24.742;2023-06-26T11:55:41;10.07;;;4.90;;
20894;SDS011;10607;42.066;24.742;2023-06-26T11:58:10;11.27;;;4.78;;
20894;SDS011;10607;42.066;24.742;2023-06-26T12:00:35;9.40;;;4.70;;
20894;SDS011;10607;42.066;24.742;2023-06-26T12:03:00;12.20;;;4.80;;
20894;SDS011;10607;42.066;24.742;2023-06-26T12:05:26;10.18;;;5.40;;
20894;SDS011;10607;42.066;24.742;2023-06-26T12:07:51;10.80;;;4.55;;
20894;SDS011;10607;42.066;24.742;2023-06-26T12:10:16;5.68;;;4.25;;
20894;SDS011;10607;42.066;24.742;2023-06-26T12:12:42;7.68;;;4.07;;
20894;SDS011;10607;42.066;24.742;2023-06-26T12:15:08;13.60;;;4.65;;
20894;SDS011;10607;42.066;24.742;2023-06-26T12:17:33;13.55;;;4.90;;
20894;SDS011;10607;42.066;24.742;2023-06-26T12:20:02;8.80;;;4.47;;
20894;SDS011;10607;42.066;24.742;2023-06-26T12:22:33;8.82;;;4.88;;
20894;SDS011;10607;42.066;24.742;2023-06-26T12:24:59;10.82;;;4.80;;
20894;SDS011;10607;42.066;24.742;2023-06-26T12:27:24;15.02;;;4.95;;
20894;SDS011;10607;42.066;24.742;2023-06-26T12:29:53;13.50;;;5.70;;
20894;SDS011;10607;42.066;24.742;2023-06-26T12:32:19;8.90;;;5.07;;
20894;SDS011;10607;42.066;24.742;2023-06-26T12:34:47;10.38;;;6.22;;
20894;SDS011;10607;42.066;24.742;2023-06-26T12:37:13;10.00;;;5.15;;
20894;SDS011;10607;42.066;24.742;2023-06-26T12:39:45;15.82;;;6.15;;
20894;SDS011;10607;42.066;24.742;2023-06-26T12:42:13;11.23;;;5.68;;
20894;SDS011;10607;42.066;24.742;2023-06-26T12:44:38;9.95;;;5.43;;
20894;SDS011;10607;42.066;24.742;2023-06-26T12:47:03;9.93;;;5.78;;
20894;SDS011;10607;42.066;24.742;2023-06-26T12:49:33;9.85;;;5.93;;
20894;SDS011;10607;42.066;24.742;2023-06-26T12:52:00;11.75;;;5.40;;
20894;SDS011;10607;42.066;24.742;2023-06-26T12:54:26;10.10;;;5.70;;
20894;SDS011;10607;42.066;24.742;2023-06-26T12:56:51;9.70;;;5.47;;
20894;SDS011;10607;42.066;24.742;2023-06-26T12:59:17;10.45;;;5.38;;
20894;SDS011;10607;42.066;24.742;2023-06-26T13:01:42;7.40;;;5.45;;
20894;SDS011;10607;42.066;24.742;2023-06-26T13:04:08;11.18;;;4.93;;
20894;SDS011;10607;42.066;24.742;2023-06-26T13:06:33;9.80;;;5.38;;
20894;SDS011;10607;42.066;24.742;2023-06-26T13:08:59;6.75;;;4.93;;
20894;SDS011;10607;42.066;24.742;2023-06-26T13:11:24;8.98;;;4.90;;
20894;SDS011;10607;42.066;24.742;2023-06-26T13:13:49;8.40;;;5.32;;
20894;SDS011;10607;42.066;24.742;2023-06-26T13:16:14;9.30;;;6.05;;
20894;SDS011;10607;42.066;24.742;2023-06-26T13:18:41;7.65;;;4.63;;
20894;SDS011;10607;42.066;24.742;2023-06-26T13:21:06;9.43;;;4.93;;
20894;SDS011;10607;42.066;24.742;2023-06-26T13:23:31;8.75;;;5.38;;
20894;SDS011;10607;42.066;24.742;2023-06-26T13:25:57;8.18;;;4.40;;
20894;SDS011;10607;42.066;24.742;2023-06-26T13:28:22;7.30;;;4.20;;
20894;SDS011;10607;42.066;24.742;2023-06-26T13:30:47;7.63;;;4.15;;
20894;SDS011;10607;42.066;24.742;2023-06-26T13:33:13;5.05;;;2.95;;
20894;SDS011;10607;42.066;24.742;2023-06-26T13:35:38;8.32;;;2.97;;
20894;SDS011;10607;42.066;24.742;2023-06-26T13:38:03;6.32;;;4.03;;
20894;SDS011;10607;42.066;24.742;2023-06-26T13:40:29;8.05;;;3.58;;
20894;SDS011;10607;42.066;24.742;2023-06-26T13:42:54;6.35;;;3.55;;
20894;SDS011;10607;42.066;24.742;2023-06-26T13:45:19;7.72;;;3.50;;
20894;SDS011;10607;42.066;24.742;2023-06-26T13:47:44;4.90;;;3.45;;
20894;SDS011;10607;42.066;24.742;2023-06-26T13:50:10;9.57;;;3.45;;
20894;SDS011;10607;42.066;24.742;2023-06-26T13:52:35;7.95;;;3.50;;
20894;SDS011;10607;42.066;24.742;2023-06-26T13:55:00;10.13;;;3.70;;
20894;SDS011;10607;42.066;24.742;2023-06-26T13:57:29;6.93;;;4.43;;
20894;SDS011;10607;42.066;24.742;2023-06-26T13:59:55;8.88;;;3.47;;
20894;SDS011;10607;42.066;24.742;2023-06-26T14:02:20;5.88;;;3.85;;
20894;SDS011;10607;42.066;24.742;2023-06-26T14:04:45;7.38;;;4.00;;
20894;SDS011;10607;42.066;24.742;2023-06-26T14:07:11;6.38;;;4.38;;
20894;SDS011;10607;42.066;24.742;2023-06-26T14:09:36;6.65;;;3.60;;
20894;SDS011;10607;42.066;24.742;2023-06-26T14:12:01;5.25;;;4.28;;
20894;SDS011;10607;42.066;24.742;2023-06-26T14:14:26;5.28;;;3.90;;
20894;SDS011;10607;42.066;24.742;2023-06-26T14:16:53;5.25;;;3.60;;
20894;SDS011;10607;42.066;24.742;2023-06-26T14:19:18;5.72;;;4.03;;
20894;SDS011;10607;42.066;24.742;2023-06-26T14:21:43;6.95;;;4.10;;
20894;SDS011;10607;42.066;24.742;2023-06-26T14:24:09;5.03;;;3.28;;
20894;SDS011;10607;42.066;24.742;2023-06-26T14:26:34;6.45;;;3.90;;
20894;SDS011;10607;42.066;24.742;2023-06-26T14:29:00;7.07;;;4.43;;
20894;SDS011;10607;42.066;24.742;2023-06-26T14:31:25;8.20;;;4.05;;